sensor_id;sensor_type;location;lat;lon;timestamp;temperature;humidity
4530;DHT22;2277;51.626;7.516;2022-12-29T00:01:27;10.80;99.90
4530;DHT22;2277;51.626;7.516;2022-12-29T00:03:53;10.90;99.90
4530;DHT22;2277;51.626;7.516;2022-12-29T00:06:18;10.90;99.90
4530;DHT22;2277;51.626;7.516;2022-12-29T00:08:44;10.90;99.90
4530;DHT22;2277;51.626;7.516;2022-12-29T00:11:15;10.90;99.90
4530;DHT22;2277;51.626;7.516;2022-12-29T00:13:41;10.90;99.90
4530;DHT22;2277;51.626;7.516;2022-12-29T00:16:26;10.80;99.90
4530;DHT22;2277;51.626;7.516;2022-12-29T00:18:52;10.90;99.90
4530;DHT22;2277;51.626;7.516;2022-12-29T00:21:19;10.90;99.90
4530;DHT22;2277;51.626;7.516;2022-12-29T00:24:04;11.00;99.90
4530;DHT22;2277;51.626;7.516;2022-12-29T00:29:46;11.00;99.90
4530;DHT22;2277;51.626;7.516;2022-12-29T00:32:30;11.00;99.90
4530;DHT22;2277;51.626;7.516;2022-12-29T00:35:23;11.10;99.90
4530;DHT22;2277;51.626;7.516;2022-12-29T00:37:50;11.10;99.90
4530;DHT22;2277;51.626;7.516;2022-12-29T00:40:35;11.10;99.90
4530;DHT22;2277;51.626;7.516;2022-12-29T00:43:19;11.20;99.90
4530;DHT22;2277;51.626;7.516;2022-12-29T00:46:03;11.20;99.90
4530;DHT22;2277;51.626;7.516;2022-12-29T00:48:28;11.10;99.90
4530;DHT22;2277;51.626;7.516;2022-12-29T00:51:13;11.10;99.90
4530;DHT22;2277;51.626;7.516;2022-12-29T00:53:38;11.00;99.90
4530;DHT22;2277;51.626;7.516;2022-12-29T00:56:04;11.10;99.90
4530;DHT22;2277;51.626;7.516;2022-12-29T00:58:30;11.10;99.90
4530;DHT22;2277;51.626;7.516;2022-12-29T01:01:06;11.10;99.90
4530;DHT22;2277;51.626;7.516;2022-12-29T01:03:33;11.20;99.90
4530;DHT22;2277;51.626;7.516;2022-12-29T01:06:09;11.20;99.90
4530;DHT22;2277;51.626;7.516;2022-12-29T01:08:35;11.10;99.90
4530;DHT22;2277;51.626;7.516;2022-12-29T01:11:09;11.20;99.90
4530;DHT22;2277;51.626;7.516;2022-12-29T01:13:35;11.30;99.90
4530;DHT22;2277;51.626;7.516;2022-12-29T01:16:03;11.30;99.90
4530;DHT22;2277;51.626;7.516;2022-12-29T01:18:29;11.30;99.90
4530;DHT22;2277;51.626;7.516;2022-12-29T01:21:00;11.30;99.90
4530;DHT22;2277;51.626;7.516;2022-12-29T01:23:26;11.20;99.90
4530;DHT22;2277;51.626;7.516;2022-12-29T01:25:52;11.20;99.90
4530;DHT22;2277;51.626;7.516;2022-12-29T01:28:17;11.30;99.90
4530;DHT22;2277;51.626;7.516;2022-12-29T01:30:43;11.20;99.90
4530;DHT22;2277;51.626;7.516;2022-12-29T01:33:08;11.20;99.90
4530;DHT22;2277;51.626;7.516;2022-12-29T01:35:34;11.20;99.90
4530;DHT22;2277;51.626;7.516;2022-12-29T01:37:59;11.20;99.90
4530;DHT22;2277;51.626;7.516;2022-12-29T01:40:25;11.20;99.90
4530;DHT22;2277;51.626;7.516;2022-12-29T01:42:51;11.20;99.90
4530;DHT22;2277;51.626;7.516;2022-12-29T01:45:17;11.20;99.90
4530;DHT22;2277;51.626;7.516;2022-12-29T01:47:53;11.20;99.90
4530;DHT22;2277;51.626;7.516;2022-12-29T01:50:39;11.20;99.90
4530;DHT22;2277;51.626;7.516;2022-12-29T01:53:17;11.20;99.90
4530;DHT22;2277;51.626;7.516;2022-12-29T01:55:49;11.30;99.90
4530;DHT22;2277;51.626;7.516;2022-12-29T01:58:19;11.30;99.90
4530;DHT22;2277;51.626;7.516;2022-12-29T02:00:45;11.30;99.90
4530;DHT22;2277;51.626;7.516;2022-12-29T02:03:11;11.40;99.90
4530;DHT22;2277;51.626;7.516;2022-12-29T02:05:39;11.30;99.90
4530;DHT22;2277;51.626;7.516;2022-12-29T02:08:06;11.40;99.90
4530;DHT22;2277;51.626;7.516;2022-12-29T02:10:33;11.40;99.90
4530;DHT22;2277;51.626;7.516;2022-12-29T02:12:59;11.40;99.90
4530;DHT22;2277;51.626;7.516;2022-12-29T02:15:48;11.50;99.90
4530;DHT22;2277;51.626;7.516;2022-12-29T02:19:10;11.50;99.90
4530;DHT22;2277;51.626;7.516;2022-12-29T02:22:09;11.50;99.90
4530;DHT22;2277;51.626;7.516;2022-12-29T02:27:50;11.60;99.90
4530;DHT22;2277;51.626;7.516;2022-12-29T02:30:42;11.60;99.90
4530;DHT22;2277;51.626;7.516;2022-12-29T02:33:23;11.60;99.90
4530;DHT22;2277;51.626;7.516;2022-12-29T02:39:18;11.70;99.90
4530;DHT22;2277;51.626;7.516;2022-12-29T02:42:13;11.70;99.90
4530;DHT22;2277;51.626;7.516;2022-12-29T02:47:56;11.80;99.90
4530;DHT22;2277;51.626;7.516;2022-12-29T02:50:38;11.80;99.90
4530;DHT22;2277;51.626;7.516;2022-12-29T02:53:07;11.80;99.90
4530;DHT22;2277;51.626;7.516;2022-12-29T02:55:34;11.90;99.90
4530;DHT22;2277;51.626;7.516;2022-12-29T02:58:22;11.90;99.90
4530;DHT22;2277;51.626;7.516;2022-12-29T03:01:11;11.90;99.90
4530;DHT22;2277;51.626;7.516;2022-12-29T03:07:18;12.00;99.90
4530;DHT22;2277;51.626;7.516;2022-12-29T03:10:00;12.00;99.90
4530;DHT22;2277;51.626;7.516;2022-12-29T03:12:30;12.00;99.90
4530;DHT22;2277;51.626;7.516;2022-12-29T03:15:28;12.00;99.90
4530;DHT22;2277;51.626;7.516;2022-12-29T03:18:22;12.00;99.90
4530;DHT22;2277;51.626;7.516;2022-12-29T03:20:55;12.10;99.90
4530;DHT22;2277;51.626;7.516;2022-12-29T03:23:24;12.10;99.90
4530;DHT22;2277;51.626;7.516;2022-12-29T03:25:53;12.10;99.90
4530;DHT22;2277;51.626;7.516;2022-12-29T03:28:28;12.00;99.90
4530;DHT22;2277;51.626;7.516;2022-12-29T03:30:56;12.10;99.90
4530;DHT22;2277;51.626;7.516;2022-12-29T03:33:25;12.20;99.90
4530;DHT22;2277;51.626;7.516;2022-12-29T03:35:55;12.20;99.90
4530;DHT22;2277;51.626;7.516;2022-12-29T03:38:53;12.20;99.90
4530;DHT22;2277;51.626;7.516;2022-12-29T03:41:20;12.20;99.90
4530;DHT22;2277;51.626;7.516;2022-12-29T03:43:48;12.20;99.90
4530;DHT22;2277;51.626;7.516;2022-12-29T03:46:13;12.20;99.90
4530;DHT22;2277;51.626;7.516;2022-12-29T03:48:39;12.20;99.90
4530;DHT22;2277;51.626;7.516;2022-12-29T03:51:04;12.20;99.90
4530;DHT22;2277;51.626;7.516;2022-12-29T03:53:30;12.10;99.90
4530;DHT22;2277;51.626;7.516;2022-12-29T03:55:56;12.20;99.90
4530;DHT22;2277;51.626;7.516;2022-12-29T03:58:21;12.20;99.90
4530;DHT22;2277;51.626;7.516;2022-12-29T04:00:47;12.20;99.90
4530;DHT22;2277;51.626;7.516;2022-12-29T04:03:12;12.20;99.90
4530;DHT22;2277;51.626;7.516;2022-12-29T04:05:38;12.20;99.90
4530;DHT22;2277;51.626;7.516;2022-12-29T04:08:03;12.10;99.90
4530;DHT22;2277;51.626;7.516;2022-12-29T04:10:29;12.00;99.90
4530;DHT22;2277;51.626;7.516;2022-12-29T04:12:55;11.90;99.90
4530;DHT22;2277;51.626;7.516;2022-12-29T04:15:20;11.80;99.90
4530;DHT22;2277;51.626;7.516;2022-12-29T04:17:46;11.80;99.90
4530;DHT22;2277;51.626;7.516;2022-12-29T04:20:11;11.70;99.90
4530;DHT22;2277;51.626;7.516;2022-12-29T04:23:00;11.70;99.90
4530;DHT22;2277;51.626;7.516;2022-12-29T04:25:26;11.60;99.90
4530;DHT22;2277;51.626;7.516;2022-12-29T04:27:51;11.60;99.90
4530;DHT22;2277;51.626;7.516;2022-12-29T04:30:17;11.60;99.90
4530;DHT22;2277;51.626;7.516;2022-12-29T04:32:43;11.50;99.90
4530;DHT22;2277;51.626;7.516;2022-12-29T04:35:08;11.40;99.90
4530;DHT22;2277;51.626;7.516;2022-12-29T04:37:34;11.40;99.90
4530;DHT22;2277;51.626;7.516;2022-12-29T04:39:59;11.40;99.90
4530;DHT22;2277;51.626;7.516;2022-12-29T04:42:26;11.30;99.90
4530;DHT22;2277;51.626;7.516;2022-12-29T04:44:52;11.30;99.90
4530;DHT22;2277;51.626;7.516;2022-12-29T04:47:18;11.40;99.90
4530;DHT22;2277;51.626;7.516;2022-12-29T04:49:43;11.40;99.90
4530;DHT22;2277;51.626;7.516;2022-12-29T04:52:09;11.40;99.90
4530;DHT22;2277;51.626;7.516;2022-12-29T04:54:34;11.40;99.90
4530;DHT22;2277;51.626;7.516;2022-12-29T04:57:00;11.50;99.90
4530;DHT22;2277;51.626;7.516;2022-12-29T04:59:26;11.50;99.90
4530;DHT22;2277;51.626;7.516;2022-12-29T05:01:51;11.50;99.90
4530;DHT22;2277;51.626;7.516;2022-12-29T05:04:17;11.60;99.90
4530;DHT22;2277;51.626;7.516;2022-12-29T05:06:42;11.60;99.90
4530;DHT22;2277;51.626;7.516;2022-12-29T05:09:08;11.70;99.90
4530;DHT22;2277;51.626;7.516;2022-12-29T05:11:34;11.80;99.90
4530;DHT22;2277;51.626;7.516;2022-12-29T05:14:00;11.80;99.90
4530;DHT22;2277;51.626;7.516;2022-12-29T05:16:25;11.90;99.90
4530;DHT22;2277;51.626;7.516;2022-12-29T05:18:51;12.00;99.90
4530;DHT22;2277;51.626;7.516;2022-12-29T05:21:17;12.00;99.90
4530;DHT22;2277;51.626;7.516;2022-12-29T05:23:42;12.10;99.90
4530;DHT22;2277;51.626;7.516;2022-12-29T05:26:08;12.20;99.90
4530;DHT22;2277;51.626;7.516;2022-12-29T05:28:33;12.30;99.90
4530;DHT22;2277;51.626;7.516;2022-12-29T05:30:59;12.40;99.90
4530;DHT22;2277;51.626;7.516;2022-12-29T05:33:24;12.40;99.90
4530;DHT22;2277;51.626;7.516;2022-12-29T05:35:50;12.50;99.90
4530;DHT22;2277;51.626;7.516;2022-12-29T05:38:16;12.50;99.90
4530;DHT22;2277;51.626;7.516;2022-12-29T05:40:43;12.60;99.90
4530;DHT22;2277;51.626;7.516;2022-12-29T05:43:08;12.60;99.90
4530;DHT22;2277;51.626;7.516;2022-12-29T05:45:35;12.70;99.90
4530;DHT22;2277;51.626;7.516;2022-12-29T05:48:01;12.70;99.90
4530;DHT22;2277;51.626;7.516;2022-12-29T05:50:26;12.60;99.90
4530;DHT22;2277;51.626;7.516;2022-12-29T05:52:52;12.70;99.90
4530;DHT22;2277;51.626;7.516;2022-12-29T05:55:17;12.70;99.90
4530;DHT22;2277;51.626;7.516;2022-12-29T05:57:43;12.70;99.90
4530;DHT22;2277;51.626;7.516;2022-12-29T06:00:09;12.80;99.90
4530;DHT22;2277;51.626;7.516;2022-12-29T06:02:35;12.90;99.90
4530;DHT22;2277;51.626;7.516;2022-12-29T06:05:01;12.90;99.90
4530;DHT22;2277;51.626;7.516;2022-12-29T06:07:26;13.00;99.90
4530;DHT22;2277;51.626;7.516;2022-12-29T06:09:52;13.10;99.90
4530;DHT22;2277;51.626;7.516;2022-12-29T06:12:17;13.10;99.90
4530;DHT22;2277;51.626;7.516;2022-12-29T06:14:43;13.20;99.90
4530;DHT22;2277;51.626;7.516;2022-12-29T06:17:08;13.20;99.90
4530;DHT22;2277;51.626;7.516;2022-12-29T06:19:35;13.20;99.90
4530;DHT22;2277;51.626;7.516;2022-12-29T06:22:00;13.20;99.90
4530;DHT22;2277;51.626;7.516;2022-12-29T06:24:26;13.20;99.90
4530;DHT22;2277;51.626;7.516;2022-12-29T06:26:51;13.30;99.90
4530;DHT22;2277;51.626;7.516;2022-12-29T06:29:17;13.20;99.90
4530;DHT22;2277;51.626;7.516;2022-12-29T06:31:44;13.20;99.90
4530;DHT22;2277;51.626;7.516;2022-12-29T06:34:11;13.20;99.90
4530;DHT22;2277;51.626;7.516;2022-12-29T06:36:37;13.20;99.90
4530;DHT22;2277;51.626;7.516;2022-12-29T06:39:03;13.20;99.90
4530;DHT22;2277;51.626;7.516;2022-12-29T06:41:28;13.10;99.90
4530;DHT22;2277;51.626;7.516;2022-12-29T06:43:54;13.10;99.90
4530;DHT22;2277;51.626;7.516;2022-12-29T06:46:20;12.90;99.90
4530;DHT22;2277;51.626;7.516;2022-12-29T06:48:45;12.90;99.90
4530;DHT22;2277;51.626;7.516;2022-12-29T06:51:11;12.90;99.90
4530;DHT22;2277;51.626;7.516;2022-12-29T06:53:37;12.90;99.90
4530;DHT22;2277;51.626;7.516;2022-12-29T06:56:02;12.90;99.90
4530;DHT22;2277;51.626;7.516;2022-12-29T06:58:28;12.90;99.90
4530;DHT22;2277;51.626;7.516;2022-12-29T07:00:53;12.90;99.90
4530;DHT22;2277;51.626;7.516;2022-12-29T07:03:19;12.80;99.90
4530;DHT22;2277;51.626;7.516;2022-12-29T07:05:45;12.80;99.90
4530;DHT22;2277;51.626;7.516;2022-12-29T07:08:10;12.80;99.90
4530;DHT22;2277;51.626;7.516;2022-12-29T07:10:36;12.80;99.90
4530;DHT22;2277;51.626;7.516;2022-12-29T07:13:01;12.80;99.90
4530;DHT22;2277;51.626;7.516;2022-12-29T07:15:27;12.70;99.90
4530;DHT22;2277;51.626;7.516;2022-12-29T07:17:53;12.70;99.90
4530;DHT22;2277;51.626;7.516;2022-12-29T07:20:18;12.70;99.90
4530;DHT22;2277;51.626;7.516;2022-12-29T07:22:44;12.80;99.90
4530;DHT22;2277;51.626;7.516;2022-12-29T07:25:10;12.80;99.90
4530;DHT22;2277;51.626;7.516;2022-12-29T07:27:35;12.70;99.90
4530;DHT22;2277;51.626;7.516;2022-12-29T07:30:01;12.80;99.90
4530;DHT22;2277;51.626;7.516;2022-12-29T07:32:26;12.80;99.90
4530;DHT22;2277;51.626;7.516;2022-12-29T07:34:52;12.80;99.90
4530;DHT22;2277;51.626;7.516;2022-12-29T07:37:17;12.80;99.90
4530;DHT22;2277;51.626;7.516;2022-12-29T07:39:43;12.80;99.90
4530;DHT22;2277;51.626;7.516;2022-12-29T07:42:09;12.70;99.90
4530;DHT22;2277;51.626;7.516;2022-12-29T07:44:35;12.70;99.90
4530;DHT22;2277;51.626;7.516;2022-12-29T07:47:02;12.70;99.90
4530;DHT22;2277;51.626;7.516;2022-12-29T07:49:27;12.70;99.90
4530;DHT22;2277;51.626;7.516;2022-12-29T07:51:53;12.70;99.90
4530;DHT22;2277;51.626;7.516;2022-12-29T07:54:19;12.60;99.90
4530;DHT22;2277;51.626;7.516;2022-12-29T07:56:45;12.50;99.90
4530;DHT22;2277;51.626;7.516;2022-12-29T07:59:10;12.50;99.90
4530;DHT22;2277;51.626;7.516;2022-12-29T08:01:37;12.50;99.90
4530;DHT22;2277;51.626;7.516;2022-12-29T08:04:04;12.60;99.90
4530;DHT22;2277;51.626;7.516;2022-12-29T08:06:29;12.50;99.90
4530;DHT22;2277;51.626;7.516;2022-12-29T08:08:56;12.50;99.90
4530;DHT22;2277;51.626;7.516;2022-12-29T08:11:23;12.50;99.90
4530;DHT22;2277;51.626;7.516;2022-12-29T08:13:48;12.50;99.90
4530;DHT22;2277;51.626;7.516;2022-12-29T08:16:14;12.60;99.90
4530;DHT22;2277;51.626;7.516;2022-12-29T08:18:39;12.60;99.90
4530;DHT22;2277;51.626;7.516;2022-12-29T08:21:05;12.60;99.90
4530;DHT22;2277;51.626;7.516;2022-12-29T08:23:31;12.70;99.90
4530;DHT22;2277;51.626;7.516;2022-12-29T08:26:02;12.60;99.90
4530;DHT22;2277;51.626;7.516;2022-12-29T08:28:28;12.70;99.90
4530;DHT22;2277;51.626;7.516;2022-12-29T08:30:56;12.60;99.90
4530;DHT22;2277;51.626;7.516;2022-12-29T08:33:22;12.60;99.90
4530;DHT22;2277;51.626;7.516;2022-12-29T08:35:48;12.60;99.90
4530;DHT22;2277;51.626;7.516;2022-12-29T08:38:13;12.60;99.90
4530;DHT22;2277;51.626;7.516;2022-12-29T08:40:39;12.60;99.90
4530;DHT22;2277;51.626;7.516;2022-12-29T08:43:05;12.60;99.90
4530;DHT22;2277;51.626;7.516;2022-12-29T08:45:31;12.60;99.90
4530;DHT22;2277;51.626;7.516;2022-12-29T08:47:57;12.70;99.90
4530;DHT22;2277;51.626;7.516;2022-12-29T08:50:23;12.60;99.90
4530;DHT22;2277;51.626;7.516;2022-12-29T08:52:48;12.70;99.90
4530;DHT22;2277;51.626;7.516;2022-12-29T08:55:14;12.80;99.90
4530;DHT22;2277;51.626;7.516;2022-12-29T08:57:39;12.90;99.90
4530;DHT22;2277;51.626;7.516;2022-12-29T09:00:06;12.90;99.90
4530;DHT22;2277;51.626;7.516;2022-12-29T09:02:31;12.90;99.90
4530;DHT22;2277;51.626;7.516;2022-12-29T09:04:57;12.80;99.90
4530;DHT22;2277;51.626;7.516;2022-12-29T09:07:23;12.90;99.90
4530;DHT22;2277;51.626;7.516;2022-12-29T09:09:49;12.80;99.90
4530;DHT22;2277;51.626;7.516;2022-12-29T09:12:16;12.80;99.90
4530;DHT22;2277;51.626;7.516;2022-12-29T09:14:42;12.80;99.90
4530;DHT22;2277;51.626;7.516;2022-12-29T09:17:08;12.70;99.90
4530;DHT22;2277;51.626;7.516;2022-12-29T09:19:53;12.80;99.90
4530;DHT22;2277;51.626;7.516;2022-12-29T09:22:18;12.70;99.90
4530;DHT22;2277;51.626;7.516;2022-12-29T09:24:44;12.70;99.90
4530;DHT22;2277;51.626;7.516;2022-12-29T09:27:09;12.60;99.90
4530;DHT22;2277;51.626;7.516;2022-12-29T09:29:35;12.60;99.90
4530;DHT22;2277;51.626;7.516;2022-12-29T09:32:01;12.60;99.90
4530;DHT22;2277;51.626;7.516;2022-12-29T09:34:26;12.90;99.90
4530;DHT22;2277;51.626;7.516;2022-12-29T09:36:52;13.20;99.90
4530;DHT22;2277;51.626;7.516;2022-12-29T09:39:17;13.40;99.90
4530;DHT22;2277;51.626;7.516;2022-12-29T09:47:19;13.90;99.90
4530;DHT22;2277;51.626;7.516;2022-12-29T09:50:01;14.10;99.90
4530;DHT22;2277;51.626;7.516;2022-12-29T09:52:40;14.10;99.90
4530;DHT22;2277;51.626;7.516;2022-12-29T09:55:16;14.20;99.90
4530;DHT22;2277;51.626;7.516;2022-12-29T10:00:17;14.10;99.90
4530;DHT22;2277;51.626;7.516;2022-12-29T10:08:34;13.70;99.90
4530;DHT22;2277;51.626;7.516;2022-12-29T10:19:13;13.40;99.90
4530;DHT22;2277;51.626;7.516;2022-12-29T10:24:47;13.30;99.90
4530;DHT22;2277;51.626;7.516;2022-12-29T10:27:14;13.10;99.90
4530;DHT22;2277;51.626;7.516;2022-12-29T10:29:49;13.10;99.90
4530;DHT22;2277;51.626;7.516;2022-12-29T10:32:33;13.10;99.90
4530;DHT22;2277;51.626;7.516;2022-12-29T10:35:09;13.00;99.90
4530;DHT22;2277;51.626;7.516;2022-12-29T10:37:50;13.00;99.90
4530;DHT22;2277;51.626;7.516;2022-12-29T10:40:36;13.00;99.90
4530;DHT22;2277;51.626;7.516;2022-12-29T10:43:27;13.10;99.90
4530;DHT22;2277;51.626;7.516;2022-12-29T10:46:01;13.00;99.90
4530;DHT22;2277;51.626;7.516;2022-12-29T10:48:33;13.00;99.90
4530;DHT22;2277;51.626;7.516;2022-12-29T10:51:01;13.10;99.90
4530;DHT22;2277;51.626;7.516;2022-12-29T10:53:35;13.20;99.90
4530;DHT22;2277;51.626;7.516;2022-12-29T10:56:04;13.20;99.90
4530;DHT22;2277;51.626;7.516;2022-12-29T10:58:36;13.20;99.90
4530;DHT22;2277;51.626;7.516;2022-12-29T11:01:02;13.20;99.90
4530;DHT22;2277;51.626;7.516;2022-12-29T11:03:59;13.10;99.90
4530;DHT22;2277;51.626;7.516;2022-12-29T11:06:27;13.10;99.90
4530;DHT22;2277;51.626;7.516;2022-12-29T11:09:11;13.10;99.90
4530;DHT22;2277;51.626;7.516;2022-12-29T11:11:38;13.10;99.90
4530;DHT22;2277;51.626;7.516;2022-12-29T11:14:18;13.10;99.90
4530;DHT22;2277;51.626;7.516;2022-12-29T11:16:44;13.10;99.90
4530;DHT22;2277;51.626;7.516;2022-12-29T11:19:25;13.10;99.90
4530;DHT22;2277;51.626;7.516;2022-12-29T11:21:51;13.10;99.90
4530;DHT22;2277;51.626;7.516;2022-12-29T11:24:22;13.10;99.90
4530;DHT22;2277;51.626;7.516;2022-12-29T11:26:56;13.10;99.90
4530;DHT22;2277;51.626;7.516;2022-12-29T11:29:41;13.10;99.90
4530;DHT22;2277;51.626;7.516;2022-12-29T11:32:22;13.10;99.90
4530;DHT22;2277;51.626;7.516;2022-12-29T11:34:49;13.10;99.90
4530;DHT22;2277;51.626;7.516;2022-12-29T11:42:40;13.10;99.90
4530;DHT22;2277;51.626;7.516;2022-12-29T11:45:24;13.00;99.90
4530;DHT22;2277;51.626;7.516;2022-12-29T11:47:57;13.00;99.90
4530;DHT22;2277;51.626;7.516;2022-12-29T11:50:34;13.00;99.90
4530;DHT22;2277;51.626;7.516;2022-12-29T11:53:26;13.00;99.90
4530;DHT22;2277;51.626;7.516;2022-12-29T11:56:01;13.00;99.90
4530;DHT22;2277;51.626;7.516;2022-12-29T11:58:32;13.00;99.90
4530;DHT22;2277;51.626;7.516;2022-12-29T12:01:25;13.00;99.90
4530;DHT22;2277;51.626;7.516;2022-12-29T12:04:08;13.00;99.90
4530;DHT22;2277;51.626;7.516;2022-12-29T12:06:42;13.00;99.90
4530;DHT22;2277;51.626;7.516;2022-12-29T12:09:28;13.00;99.90
4530;DHT22;2277;51.626;7.516;2022-12-29T12:11:55;13.10;99.90
4530;DHT22;2277;51.626;7.516;2022-12-29T12:14:32;13.10;99.90
4530;DHT22;2277;51.626;7.516;2022-12-29T12:17:04;13.10;99.90
4530;DHT22;2277;51.626;7.516;2022-12-29T12:19:32;13.10;99.90
4530;DHT22;2277;51.626;7.516;2022-12-29T12:22:10;13.10;99.90
4530;DHT22;2277;51.626;7.516;2022-12-29T12:27:26;13.10;99.90
4530;DHT22;2277;51.626;7.516;2022-12-29T12:32:48;13.00;99.90
4530;DHT22;2277;51.626;7.516;2022-12-29T12:38:54;13.00;99.90
4530;DHT22;2277;51.626;7.516;2022-12-29T12:44:01;13.00;99.90
4530;DHT22;2277;51.626;7.516;2022-12-29T12:49:45;12.90;99.90
4530;DHT22;2277;51.626;7.516;2022-12-29T12:55:28;12.80;99.90
4530;DHT22;2277;51.626;7.516;2022-12-29T13:06:45;12.90;99.90
4530;DHT22;2277;51.626;7.516;2022-12-29T13:09:19;12.80;99.90
4530;DHT22;2277;51.626;7.516;2022-12-29T13:17:57;12.90;99.90
4530;DHT22;2277;51.626;7.516;2022-12-29T13:20:41;12.80;99.90
4530;DHT22;2277;51.626;7.516;2022-12-29T13:23:31;12.80;99.90
4530;DHT22;2277;51.626;7.516;2022-12-29T13:34:38;12.80;99.90
4530;DHT22;2277;51.626;7.516;2022-12-29T13:37:17;12.70;99.90
4530;DHT22;2277;51.626;7.516;2022-12-29T13:39:54;12.70;99.90
4530;DHT22;2277;51.626;7.516;2022-12-29T13:42:21;12.80;99.90
4530;DHT22;2277;51.626;7.516;2022-12-29T13:44:58;12.80;99.90
4530;DHT22;2277;51.626;7.516;2022-12-29T13:47:27;12.80;99.90
4530;DHT22;2277;51.626;7.516;2022-12-29T13:49:56;12.70;99.90
4530;DHT22;2277;51.626;7.516;2022-12-29T13:52:32;12.70;99.90
4530;DHT22;2277;51.626;7.516;2022-12-29T13:58:00;12.80;99.90
4530;DHT22;2277;51.626;7.516;2022-12-29T14:00:33;12.70;99.90
4530;DHT22;2277;51.626;7.516;2022-12-29T14:05:28;12.60;99.90
4530;DHT22;2277;51.626;7.516;2022-12-29T14:08:04;12.60;99.90
4530;DHT22;2277;51.626;7.516;2022-12-29T14:10:38;12.50;99.90
4530;DHT22;2277;51.626;7.516;2022-12-29T14:13:17;12.60;99.90
4530;DHT22;2277;51.626;7.516;2022-12-29T14:15:48;12.50;99.90
4530;DHT22;2277;51.626;7.516;2022-12-29T14:18:23;12.50;99.90
4530;DHT22;2277;51.626;7.516;2022-12-29T14:20:59;12.50;99.90
4530;DHT22;2277;51.626;7.516;2022-12-29T14:23:28;12.40;99.90
4530;DHT22;2277;51.626;7.516;2022-12-29T14:26:09;12.30;99.90
4530;DHT22;2277;51.626;7.516;2022-12-29T14:28:37;12.30;99.90
4530;DHT22;2277;51.626;7.516;2022-12-29T14:37:41;12.20;99.90
4530;DHT22;2277;51.626;7.516;2022-12-29T14:39:40;12.20;99.90
4530;DHT22;2277;51.626;7.516;2022-12-29T14:50:02;12.30;99.90
4530;DHT22;2277;51.626;7.516;2022-12-29T14:52:30;12.40;99.90
4530;DHT22;2277;51.626;7.516;2022-12-29T14:56:04;12.40;99.90
4530;DHT22;2277;51.626;7.516;2022-12-29T14:58:27;12.40;99.90
4530;DHT22;2277;51.626;7.516;2022-12-29T15:00:52;12.40;99.90
4530;DHT22;2277;51.626;7.516;2022-12-29T15:03:24;12.30;99.90
4530;DHT22;2277;51.626;7.516;2022-12-29T15:06:09;12.30;99.90
4530;DHT22;2277;51.626;7.516;2022-12-29T15:11:17;12.20;99.90
4530;DHT22;2277;51.626;7.516;2022-12-29T15:13:44;12.30;99.90
4530;DHT22;2277;51.626;7.516;2022-12-29T15:16:26;12.20;99.90
4530;DHT22;2277;51.626;7.516;2022-12-29T15:18:54;12.30;99.90
4530;DHT22;2277;51.626;7.516;2022-12-29T15:21:31;12.30;99.90
4530;DHT22;2277;51.626;7.516;2022-12-29T15:23:57;12.20;99.90
4530;DHT22;2277;51.626;7.516;2022-12-29T15:26:37;12.20;99.90
4530;DHT22;2277;51.626;7.516;2022-12-29T15:29:03;12.20;99.90
4530;DHT22;2277;51.626;7.516;2022-12-29T15:31:29;12.10;99.90
4530;DHT22;2277;51.626;7.516;2022-12-29T15:34:02;12.10;99.90
4530;DHT22;2277;51.626;7.516;2022-12-29T15:36:29;12.10;99.90
4530;DHT22;2277;51.626;7.516;2022-12-29T15:39:18;12.10;99.90
4530;DHT22;2277;51.626;7.516;2022-12-29T15:41:53;12.00;99.90
4530;DHT22;2277;51.626;7.516;2022-12-29T15:44:39;12.00;99.90
4530;DHT22;2277;51.626;7.516;2022-12-29T15:47:18;12.10;99.90
4530;DHT22;2277;51.626;7.516;2022-12-29T15:49:48;12.10;99.90
4530;DHT22;2277;51.626;7.516;2022-12-29T15:52:21;12.10;99.90
4530;DHT22;2277;51.626;7.516;2022-12-29T15:54:51;12.20;99.90
4530;DHT22;2277;51.626;7.516;2022-12-29T15:59:46;12.00;99.90
4530;DHT22;2277;51.626;7.516;2022-12-29T16:02:13;12.00;99.90
4530;DHT22;2277;51.626;7.516;2022-12-29T16:04:40;11.90;99.90
4530;DHT22;2277;51.626;7.516;2022-12-29T16:07:32;12.00;99.90
4530;DHT22;2277;51.626;7.516;2022-12-29T16:10:00;12.00;99.90
4530;DHT22;2277;51.626;7.516;2022-12-29T16:12:32;12.00;99.90
4530;DHT22;2277;51.626;7.516;2022-12-29T16:15:00;12.00;99.90
4530;DHT22;2277;51.626;7.516;2022-12-29T16:17:29;11.90;99.90
4530;DHT22;2277;51.626;7.516;2022-12-29T16:22:33;11.90;99.90
4530;DHT22;2277;51.626;7.516;2022-12-29T16:25:18;12.00;99.90
4530;DHT22;2277;51.626;7.516;2022-12-29T16:27:44;11.90;99.90
4530;DHT22;2277;51.626;7.516;2022-12-29T16:30:21;11.90;99.90
4530;DHT22;2277;51.626;7.516;2022-12-29T16:32:52;11.90;99.90
4530;DHT22;2277;51.626;7.516;2022-12-29T16:35:20;11.80;99.90
4530;DHT22;2277;51.626;7.516;2022-12-29T16:37:48;11.90;99.90
4530;DHT22;2277;51.626;7.516;2022-12-29T16:48:34;11.90;99.90
4530;DHT22;2277;51.626;7.516;2022-12-29T16:51:05;11.90;99.90
4530;DHT22;2277;51.626;7.516;2022-12-29T16:53:37;11.90;99.90
4530;DHT22;2277;51.626;7.516;2022-12-29T16:58:34;11.90;99.90
4530;DHT22;2277;51.626;7.516;2022-12-29T17:01:03;11.90;99.90
4530;DHT22;2277;51.626;7.516;2022-12-29T17:03:39;12.00;99.90
4530;DHT22;2277;51.626;7.516;2022-12-29T17:06:05;11.90;99.90
4530;DHT22;2277;51.626;7.516;2022-12-29T17:08:41;11.90;99.90
4530;DHT22;2277;51.626;7.516;2022-12-29T17:14:04;11.80;99.90
4530;DHT22;2277;51.626;7.516;2022-12-29T17:16:30;11.80;99.90
4530;DHT22;2277;51.626;7.516;2022-12-29T17:18:56;11.80;99.90
4530;DHT22;2277;51.626;7.516;2022-12-29T17:21:21;11.80;99.90
4530;DHT22;2277;51.626;7.516;2022-12-29T17:23:47;11.60;99.90
4530;DHT22;2277;51.626;7.516;2022-12-29T17:26:12;11.60;99.90
4530;DHT22;2277;51.626;7.516;2022-12-29T17:28:38;11.70;99.90
4530;DHT22;2277;51.626;7.516;2022-12-29T17:31:05;11.60;99.90
4530;DHT22;2277;51.626;7.516;2022-12-29T17:33:35;11.50;99.90
4530;DHT22;2277;51.626;7.516;2022-12-29T17:36:02;11.50;99.90
4530;DHT22;2277;51.626;7.516;2022-12-29T17:38:29;11.50;99.90
4530;DHT22;2277;51.626;7.516;2022-12-29T17:40:56;11.50;99.90
4530;DHT22;2277;51.626;7.516;2022-12-29T17:43:22;11.20;99.90
4530;DHT22;2277;51.626;7.516;2022-12-29T17:45:57;10.80;99.90
4530;DHT22;2277;51.626;7.516;2022-12-29T17:48:24;10.60;99.90
4530;DHT22;2277;51.626;7.516;2022-12-29T17:50:51;10.30;99.90
4530;DHT22;2277;51.626;7.516;2022-12-29T17:53:25;10.20;99.90
4530;DHT22;2277;51.626;7.516;2022-12-29T17:55:52;10.00;99.90
4530;DHT22;2277;51.626;7.516;2022-12-29T17:58:20;10.00;99.90
4530;DHT22;2277;51.626;7.516;2022-12-29T18:00:52;9.80;99.90
4530;DHT22;2277;51.626;7.516;2022-12-29T18:03:21;9.80;99.90
4530;DHT22;2277;51.626;7.516;2022-12-29T18:05:47;9.70;99.90
4530;DHT22;2277;51.626;7.516;2022-12-29T18:08:14;9.70;99.90
4530;DHT22;2277;51.626;7.516;2022-12-29T18:10:40;9.70;99.90
4530;DHT22;2277;51.626;7.516;2022-12-29T18:13:06;9.60;99.90
4530;DHT22;2277;51.626;7.516;2022-12-29T18:15:34;9.70;99.90
4530;DHT22;2277;51.626;7.516;2022-12-29T18:18:11;9.70;99.90
4530;DHT22;2277;51.626;7.516;2022-12-29T18:20:38;9.60;99.90
4530;DHT22;2277;51.626;7.516;2022-12-29T18:23:04;9.50;99.90
4530;DHT22;2277;51.626;7.516;2022-12-29T18:25:39;9.60;99.90
4530;DHT22;2277;51.626;7.516;2022-12-29T18:28:07;9.60;99.90
4530;DHT22;2277;51.626;7.516;2022-12-29T18:30:33;9.60;99.90
4530;DHT22;2277;51.626;7.516;2022-12-29T18:32:59;9.70;99.90